Lisboa, Portugal

06:26 PM WEST em 25 de Outubro de 2014 (GMT +0100)
Lisbon | Change Station
CLOSE
Current Station
Aeroporto
Location: Lisbon,
Altitude: 404 ft
Estações Meteorológicas Próximas

Elev 404 ft 38.78 °N, 9.14 °W | Updated 26 minutes ago

Clear
Céu Limpo
77 °F
Aparente 77 °F
N
4
Vento Variável Vento de Este

Hoje
Máxima -- | Mínima -- °F
--% Possibilidade de Precip.
Ontem
Máxima -- | Mínima -- °F
Precip. -- pol
7:55 AM 6:44 PM
Quarto crescente, 4% visible
Pressão 30.04 pol
Visibilidade -9999.0 milhas
Nuvens
Ponto de Orvalho 52 °F
Humidade 41%
Chuva 0.00 pol
Altura de Neve Não disponível
UV Não disponível
Pólen Não disponível
Qualidade do Ar Não disponível
Flu Activity Não disponível
METAR LPPT 251700Z 10003KT CAVOK 25/11 Q1017

More Conditions Fewer Conditions

Pressão 30.04 pol
Visibilidade -9999.0 milhas
Nuvens
Ponto de Orvalho 52 °F
Humidade 41%
Chuva 0.00 pol
Altura de Neve Não disponível
UV Não disponível
Pólen Não disponível
Qualidade do Ar Não disponível
Flu Activity Não disponível
METAR LPPT 251700Z 10003KT CAVOK 25/11 Q1017

More Conditions Fewer Conditions

10-Day Weather Forecast

Almanac

Astronomia

Oct. 25, 2014 Nascer Pôr
Hora atual 07:55 WEST 18:44 WEST
Crepúsculo civil 07:28 WEST 19:11 WEST
Crepúsculo náutico 06:57 WEST 19:43 WEST
Crepúsculo astronómico 06:26 WEST 20:13 WEST
Lua 09:20 WEST 19:58 WEST
Comprimento da luz visível 11h 43m
Duração do Dia
10h 49m
Tomorrow will be 2m 19s shorter.
Quarto crescente, 4% of the Moon is Illuminated
Hoje
Quarto crescente
Out 30
Quarto crescente
Nov 6
Lua cheia
Nov 14
Quarto minguante
Nov 22
Nova

Extremos de Hoje

Altitude na localidade Altura mais baixa na localidade

Community

WunderPhotos

Upload Photos

1,764,918 fotografias inseridas!

Nearby

Actividade Sísmisca

Cidade Distância Mag. Hora & Data
Não há notícias de atividade sísmica recente perto de si.
Mínima magnitude apresentada é 2.5.

Temperaturas das Águas Costeiras

Local Temperatura
Não há estações a reportar dados

Estações Meteorológicas Próximas